Main page
METAR-TAF:

METAR-TAF

Airports :

RAF Lossiemouth

Lossiemouth, Scotland

latitude: 57-43N, longitude: 003-19W, elevation: 13 m

Current weather observation

The report was made 22 minutes ago, at 12:50 UTC
Wind 17 kt from the West/Southwest
Temperature 17°C
Humidity 59%
Pressure 1010 hPa
Visibility 10 km or more

METAR: EGQS 211250Z AUTO 24017KT 9999 // NCD 17/09 Q1010

Time: 14:12 (13:12 UTC)


TAF: missing

Weather observations and forecasts of more than 4000 airports (METAR and TAF reports).

The available stations are represented by yellow and red dots on the map.

Hover mouse over dot to see the name of the station.

Then click to see weather observations and forecasts.

To change the map : click on the green buttons with a black cross to zoom in, on the green button with a dash to zoom out, or on the green arrows for adjacent maps.


METAR-TAF: